Skip Navigation Links Skip Navigation Links

Current Weather

Montgomery County Airpark, Gaithersburg, Md.

For information only: do not use for flight planning or navigation.
Latest weather
Observation time Sunday, August 1, 2021 5:56 AM EDT
Local time Sunday, August 1, 2021 6:12 AM EDT
Flight conditions Visual Meteorological Conditions
Winds
Wind speed calm
Visibility 10 mi.
Sky condition
Ceiling 10,000 ft. overcast
Cloud layer scattered clouds 6,000 ft.
Cloud layer scattered clouds 8,000 ft.
Cloud layer overcast 10,000 ft.
Temperature 69°F
Dewpoint 66°F
Altimeter 29.91 in.Hg
Derived measurements
Relative humidity 90%
Density altitude 1502 ft.
Sea-level pressure 29.94 in.Hg
Remarks
Fully automated report.
Automated weather observing station with precipitation discriminator.
METAR KGAI 010956Z AUTO 00000KT 10SM SCT060 SCT080 OVC100 21/19 A2991 RMK AO2 SLP139 T02060189

Settings

Location code

InnerDrive.Weather 4.0.6770.0 Release CLR 4.0.30319.42000
Copyright ©2018 Inner Drive Technology. All rights reserved. Portions Copyright ©1986-2018 David Braverman.

Find weather

Site navigation


Skip Navigation Links

Place info

Page info

PayPal - The safer, easier way to pay online!

Return home.

Copyright ©2021 Inner Drive Technology. Purveyors of fine, hand-crafted computer software. Page printed 2021-08-01T10:12:28 UTC.